createdAt,value
2023-03-16T00:00:45.616Z,17.00
2023-03-16T00:03:18.619Z,17.00
2023-03-16T00:05:46.268Z,17.80
2023-03-16T00:08:14.316Z,17.80
2023-03-16T00:10:46.136Z,18.00
2023-03-16T00:13:24.381Z,17.30
2023-03-16T00:15:54.888Z,17.20
2023-03-16T00:18:21.936Z,19.60
2023-03-16T00:20:53.089Z,19.30
2023-03-16T00:23:27.311Z,20.20
2023-03-16T00:26:00.335Z,24.00
2023-03-16T00:28:34.823Z,27.20
2023-03-16T00:31:03.764Z,28.00
2023-03-16T00:33:37.508Z,29.80
2023-03-16T00:36:08.506Z,21.60
2023-03-16T00:38:38.166Z,19.40
2023-03-16T00:41:06.958Z,19.50
2023-03-16T00:43:41.706Z,18.40
2023-03-16T00:46:19.779Z,20.10
2023-03-16T00:48:48.679Z,21.50
2023-03-16T00:51:17.471Z,26.20
2023-03-16T00:53:47.224Z,24.30
2023-03-16T00:56:20.195Z,25.30
2023-03-16T00:58:48.410Z,23.70
2023-03-16T01:01:17.017Z,24.30
2023-03-16T01:03:46.835Z,25.80
2023-03-16T01:06:17.146Z,27.80
2023-03-16T01:08:45.482Z,28.30
2023-03-16T01:11:16.556Z,28.80
2023-03-16T01:13:49.770Z,26.90
2023-03-16T01:16:23.424Z,26.70
2023-03-16T01:18:52.800Z,26.00
2023-03-16T01:21:21.922Z,26.60
2023-03-16T01:23:54.077Z,27.80
2023-03-16T01:26:23.306Z,29.20
2023-03-16T01:28:51.829Z,26.20
2023-03-16T01:31:20.213Z,25.60
2023-03-16T01:33:48.678Z,23.70
2023-03-16T01:36:22.096Z,23.10
2023-03-16T01:38:57.099Z,24.00
2023-03-16T01:41:27.784Z,26.70
2023-03-16T01:43:58.656Z,27.20
2023-03-16T01:46:32.954Z,29.10
2023-03-16T01:49:08.882Z,27.20
2023-03-16T01:51:46.794Z,25.50
2023-03-16T01:54:30.228Z,25.10
2023-03-16T01:57:18.396Z,24.00
2023-03-16T02:00:10.956Z,25.70
2023-03-16T02:02:48.739Z,24.10
2023-03-16T02:05:23.614Z,22.30
2023-03-16T02:07:58.711Z,20.60
2023-03-16T02:10:28.185Z,19.50
2023-03-16T02:13:01.775Z,18.90
2023-03-16T02:15:30.059Z,18.30
2023-03-16T02:18:00.384Z,17.50
2023-03-16T02:20:35.764Z,16.90
2023-03-16T02:23:04.874Z,17.40
2023-03-16T02:26:05.222Z,17.40
2023-03-16T02:28:35.755Z,16.10
2023-03-16T02:31:04.214Z,16.90
2023-03-16T02:33:32.686Z,15.80
2023-03-16T02:36:01.000Z,15.10
2023-03-16T02:38:30.277Z,15.00
2023-03-16T02:41:01.980Z,15.20
2023-03-16T02:43:33.551Z,14.80
2023-03-16T02:46:17.624Z,15.00
2023-03-16T02:48:47.940Z,14.50
2023-03-16T02:51:16.422Z,13.50
2023-03-16T02:53:45.873Z,13.60
2023-03-16T02:56:14.513Z,13.10
2023-03-16T02:58:42.896Z,14.60
2023-03-16T03:01:16.876Z,11.00
2023-03-16T03:03:45.172Z,14.00
2023-03-16T03:06:13.345Z,13.20
2023-03-16T03:08:42.947Z,13.00
2023-03-16T03:11:11.298Z,13.90
2023-03-16T03:13:39.807Z,13.50
2023-03-16T03:16:12.904Z,14.70
2023-03-16T03:18:41.290Z,15.30
2023-03-16T03:21:09.376Z,15.60
2023-03-16T03:23:38.105Z,17.20
2023-03-16T03:26:09.750Z,15.50
2023-03-16T03:28:40.486Z,14.90
2023-03-16T03:31:19.531Z,14.10
2023-03-16T03:33:47.941Z,14.60
2023-03-16T03:36:16.150Z,15.10
2023-03-16T03:38:45.875Z,14.50
2023-03-16T03:41:14.306Z,14.70
2023-03-16T03:43:44.474Z,14.30
2023-03-16T03:46:19.207Z,14.80
2023-03-16T03:48:48.723Z,13.70
2023-03-16T03:51:17.871Z,14.20
2023-03-16T03:54:07.048Z,13.90
2023-03-16T03:56:38.574Z,14.60
2023-03-16T03:59:09.317Z,13.60
2023-03-16T04:02:16.335Z,13.20
2023-03-16T04:04:58.613Z,13.20
2023-03-16T04:07:26.864Z,13.70
2023-03-16T04:11:12.566Z,14.30
2023-03-16T04:13:41.372Z,13.40
2023-03-16T04:16:11.546Z,14.00
2023-03-16T04:18:47.788Z,13.50
2023-03-16T04:21:16.982Z,13.40
2023-03-16T04:23:47.693Z,13.70
2023-03-16T04:26:16.080Z,12.20
2023-03-16T04:28:45.573Z,12.10
2023-03-16T04:33:49.328Z,12.20
2023-03-16T04:36:17.950Z,12.30
2023-03-16T04:38:47.589Z,12.30
2023-03-16T04:41:16.056Z,12.40
2023-03-16T04:43:55.503Z,11.80
2023-03-16T04:46:26.920Z,11.00
2023-03-16T04:48:59.025Z,11.40
2023-03-16T04:51:28.798Z,11.80
2023-03-16T04:54:04.842Z,11.50
2023-03-16T04:56:41.751Z,13.20
2023-03-16T04:59:19.396Z,12.20
2023-03-16T05:01:55.951Z,12.80
2023-03-16T05:04:25.446Z,12.00
2023-03-16T05:06:54.301Z,11.40
2023-03-16T05:09:26.077Z,11.60
2023-03-16T05:11:54.321Z,11.60
2023-03-16T05:14:25.650Z,12.20
2023-03-16T05:17:09.416Z,12.40
2023-03-16T05:19:38.135Z,12.10
2023-03-16T05:22:06.829Z,11.30
2023-03-16T05:24:39.605Z,11.70
2023-03-16T05:27:08.645Z,12.80
2023-03-16T05:29:37.960Z,12.30
2023-03-16T05:32:06.653Z,13.40
2023-03-16T05:34:37.080Z,12.20
2023-03-16T05:37:05.262Z,12.50
2023-03-16T05:39:34.497Z,12.10
2023-03-16T05:42:05.246Z,14.30
2023-03-16T05:44:41.238Z,13.40
2023-03-16T05:47:18.306Z,15.10
2023-03-16T05:49:50.743Z,13.40
2023-03-16T05:52:26.486Z,13.40
2023-03-16T05:54:56.450Z,12.80
2023-03-16T05:57:27.268Z,12.30
2023-03-16T05:59:55.979Z,13.00
2023-03-16T06:02:24.400Z,13.50
2023-03-16T06:04:54.093Z,14.30
2023-03-16T06:07:22.314Z,14.60
2023-03-16T06:09:51.162Z,15.40
2023-03-16T06:12:21.404Z,15.40
2023-03-16T06:14:50.577Z,15.20
2023-03-16T06:17:23.470Z,16.80
2023-03-16T06:19:53.504Z,17.20
2023-03-16T06:22:21.834Z,16.80
2023-03-16T06:24:55.423Z,15.30
2023-03-16T06:27:27.045Z,14.00
2023-03-16T06:30:12.323Z,12.40
2023-03-16T06:32:45.517Z,12.80
2023-03-16T06:35:13.788Z,15.30
2023-03-16T06:37:48.218Z,14.70
2023-03-16T06:40:36.294Z,12.70
2023-03-16T06:43:06.439Z,13.70
2023-03-16T06:45:35.354Z,13.40
2023-03-16T06:48:04.362Z,12.80
2023-03-16T06:50:32.741Z,13.80
2023-03-16T06:53:01.480Z,12.20
2023-03-16T06:55:32.797Z,12.50
2023-03-16T06:58:02.621Z,13.80
2023-03-16T07:00:31.833Z,13.30
2023-03-16T07:03:00.897Z,14.20
2023-03-16T07:05:30.185Z,16.60
2023-03-16T07:08:01.531Z,23.10
2023-03-16T07:10:32.275Z,26.40
2023-03-16T07:13:00.551Z,15.10
2023-03-16T07:15:34.735Z,13.50
2023-03-16T07:18:03.574Z,13.70
2023-03-16T07:20:33.302Z,15.00
2023-03-16T07:23:07.127Z,17.30
2023-03-16T07:25:35.927Z,16.30
2023-03-16T07:28:05.891Z,14.80
2023-03-16T07:30:41.298Z,12.80
2023-03-16T07:33:12.056Z,13.90
2023-03-16T07:35:41.597Z,14.80
2023-03-16T07:38:12.312Z,16.60
2023-03-16T07:40:42.150Z,14.90
2023-03-16T07:43:16.445Z,19.00
2023-03-16T07:45:51.711Z,18.20
2023-03-16T07:48:21.797Z,12.90
2023-03-16T07:50:54.495Z,13.20
2023-03-16T07:53:25.119Z,15.30
2023-03-16T07:56:01.821Z,16.40
2023-03-16T07:58:32.138Z,15.50
2023-03-16T08:01:02.232Z,14.70
2023-03-16T08:03:32.174Z,15.10
2023-03-16T08:06:05.652Z,15.70
2023-03-16T08:08:34.984Z,15.30
2023-03-16T08:11:03.479Z,16.20
2023-03-16T08:13:44.653Z,14.90
2023-03-16T08:16:14.362Z,15.20
2023-03-16T08:18:44.735Z,15.60
2023-03-16T08:21:15.488Z,16.20
2023-03-16T08:23:49.452Z,17.10
2023-03-16T08:26:23.626Z,17.30
2023-03-16T08:28:55.667Z,17.10
2023-03-16T08:31:25.574Z,17.40
2023-03-16T08:34:10.263Z,18.30
2023-03-16T08:36:44.515Z,17.20
2023-03-16T08:39:15.144Z,17.80
2023-03-16T08:41:47.179Z,18.60
2023-03-16T08:44:30.611Z,20.20
2023-03-16T08:47:00.494Z,19.40
2023-03-16T08:49:30.393Z,18.30
2023-03-16T08:52:07.159Z,18.10
2023-03-16T08:54:37.606Z,18.50
2023-03-16T08:57:15.729Z,18.80
2023-03-16T08:59:46.235Z,19.20
2023-03-16T09:02:14.995Z,18.50
2023-03-16T09:04:46.859Z,18.80
2023-03-16T09:07:20.993Z,17.50
2023-03-16T09:09:54.265Z,19.40
2023-03-16T09:12:24.192Z,20.00
2023-03-16T09:14:54.522Z,20.10
2023-03-16T09:17:23.945Z,20.20
2023-03-16T09:19:54.347Z,18.50
2023-03-16T09:22:23.313Z,19.40
2023-03-16T09:24:53.996Z,18.20
2023-03-16T09:27:22.726Z,18.70
2023-03-16T09:29:56.614Z,18.60
2023-03-16T09:32:25.905Z,22.00
2023-03-16T09:34:54.721Z,21.60
2023-03-16T09:37:44.962Z,20.60
2023-03-16T09:40:26.305Z,20.20
2023-03-16T09:43:00.254Z,20.80
2023-03-16T09:45:41.845Z,23.70
2023-03-16T09:48:12.449Z,20.70
2023-03-16T09:50:48.760Z,19.90
2023-03-16T09:53:38.034Z,19.70
2023-03-16T09:56:08.870Z,18.10
2023-03-16T09:58:37.634Z,17.00
2023-03-16T10:01:25.629Z,20.20
2023-03-16T10:04:00.002Z,21.80
2023-03-16T10:08:59.742Z,19.20
2023-03-16T10:11:34.110Z,19.70
2023-03-16T10:14:12.367Z,19.90
2023-03-16T10:16:51.960Z,19.40
2023-03-16T10:19:29.073Z,20.20
2023-03-16T10:21:59.104Z,21.20
2023-03-16T10:24:59.888Z,20.90
2023-03-16T10:27:32.893Z,21.30
2023-03-16T10:30:01.783Z,21.00
2023-03-16T10:32:31.647Z,20.60
2023-03-16T10:35:04.918Z,20.80
2023-03-16T10:37:35.650Z,20.00
2023-03-16T10:40:09.311Z,17.60
2023-03-16T10:42:37.463Z,18.10
2023-03-16T10:45:06.703Z,19.50
2023-03-16T10:47:35.748Z,20.10
2023-03-16T10:50:12.566Z,20.30
2023-03-16T10:52:42.815Z,18.40
2023-03-16T10:55:29.036Z,17.50
2023-03-16T10:57:57.613Z,16.80
2023-03-16T11:00:27.306Z,19.80
2023-03-16T11:02:55.820Z,17.40
2023-03-16T11:05:29.978Z,18.50
2023-03-16T11:07:59.417Z,16.30
2023-03-16T11:10:33.301Z,15.50
2023-03-16T11:13:14.823Z,15.10
2023-03-16T11:15:46.603Z,15.30
2023-03-16T11:18:30.974Z,15.80
2023-03-16T11:21:19.502Z,14.50
2023-03-16T11:23:51.602Z,14.30
2023-03-16T11:26:32.054Z,14.70
2023-03-16T11:31:42.883Z,14.10
2023-03-16T11:34:22.499Z,13.90
2023-03-16T11:37:13.785Z,12.20
2023-03-16T11:39:45.693Z,13.90
2023-03-16T11:42:20.818Z,12.90
2023-03-16T11:45:01.851Z,11.90
2023-03-16T11:47:44.358Z,11.80
2023-03-16T11:50:29.684Z,11.70
2023-03-16T11:53:00.834Z,10.60
2023-03-16T11:56:01.568Z,10.80
2023-03-16T11:58:39.259Z,9.80
2023-03-16T12:01:09.184Z,9.90
2023-03-16T12:03:54.659Z,10.40
2023-03-16T12:06:25.262Z,8.50
2023-03-16T12:09:00.107Z,9.30
2023-03-16T12:11:32.318Z,10.60
2023-03-16T12:14:07.759Z,8.70
2023-03-16T12:16:48.985Z,8.10
2023-03-16T12:19:38.336Z,8.30
2023-03-16T12:22:27.826Z,8.50
2023-03-16T12:24:55.894Z,8.20
2023-03-16T12:27:24.957Z,9.70
2023-03-16T12:30:13.980Z,8.40
2023-03-16T12:32:50.565Z,10.60
2023-03-16T12:35:27.532Z,15.40
2023-03-16T12:38:07.884Z,10.40
2023-03-16T12:40:46.799Z,9.60
2023-03-16T12:43:29.205Z,9.60
2023-03-16T12:46:08.661Z,9.70
2023-03-16T12:48:37.977Z,11.00
2023-03-16T12:51:06.429Z,10.80
2023-03-16T12:53:38.857Z,9.10
2023-03-16T12:56:10.218Z,9.30
2023-03-16T12:58:43.851Z,10.10
2023-03-16T13:01:12.268Z,9.90
2023-03-16T13:03:41.123Z,14.50
2023-03-16T13:06:17.467Z,10.90
2023-03-16T13:08:47.809Z,21.30
2023-03-16T13:11:16.553Z,11.90
2023-03-16T13:14:00.225Z,17.40
2023-03-16T13:16:33.382Z,10.20
2023-03-16T13:19:17.811Z,15.90
2023-03-16T13:21:46.097Z,14.00
2023-03-16T13:24:27.045Z,8.90
2023-03-16T13:26:59.170Z,9.50
2023-03-16T13:29:28.147Z,11.20
2023-03-16T13:31:57.310Z,8.60
2023-03-16T13:34:25.611Z,7.60
2023-03-16T13:36:54.662Z,8.10
2023-03-16T13:39:23.584Z,8.00
2023-03-16T13:42:22.364Z,8.40
2023-03-16T13:44:54.620Z,9.00
2023-03-16T13:47:22.867Z,8.50
2023-03-16T13:49:54.843Z,9.70
2023-03-16T13:52:33.632Z,10.40
2023-03-16T13:55:16.279Z,8.80
2023-03-16T13:58:31.887Z,8.50
2023-03-16T14:01:04.544Z,8.00
2023-03-16T14:03:54.340Z,7.50
2023-03-16T14:06:28.048Z,7.60
2023-03-16T14:08:58.689Z,7.40
2023-03-16T14:11:27.348Z,7.90
2023-03-16T14:13:56.922Z,7.50
2023-03-16T14:16:26.205Z,7.20
2023-03-16T14:19:04.444Z,7.70
2023-03-16T14:21:34.517Z,7.00
2023-03-16T14:24:07.223Z,11.60
2023-03-16T14:26:42.588Z,7.60
2023-03-16T14:29:20.468Z,7.40
2023-03-16T14:31:48.711Z,7.60
2023-03-16T14:34:26.327Z,7.90
2023-03-16T14:37:16.479Z,10.90
2023-03-16T14:39:46.033Z,8.80
2023-03-16T14:42:15.839Z,8.50
2023-03-16T14:44:44.635Z,8.90
2023-03-16T14:47:15.960Z,25.80
2023-03-16T14:49:44.639Z,12.60
2023-03-16T14:52:34.157Z,7.50
2023-03-16T14:55:05.875Z,8.40
2023-03-16T14:57:34.501Z,7.80
2023-03-16T15:00:03.355Z,7.50
2023-03-16T15:02:32.491Z,7.20
2023-03-16T15:05:02.161Z,7.40
2023-03-16T15:07:31.416Z,9.90
2023-03-16T15:10:23.470Z,8.20
2023-03-16T15:13:04.547Z,8.00
2023-03-16T15:15:33.061Z,9.20
2023-03-16T15:18:01.304Z,10.20
2023-03-16T15:20:31.897Z,8.30
2023-03-16T15:23:01.883Z,9.20
2023-03-16T15:25:36.921Z,8.40
2023-03-16T15:28:16.088Z,7.70
2023-03-16T15:30:46.215Z,8.10
2023-03-16T15:33:14.674Z,7.70
2023-03-16T15:35:43.650Z,8.10
2023-03-16T15:38:14.180Z,8.40
2023-03-16T15:40:42.963Z,8.40
2023-03-16T15:43:16.873Z,9.70
2023-03-16T15:45:46.271Z,16.30
2023-03-16T15:48:14.830Z,15.20
2023-03-16T15:50:44.802Z,16.40
2023-03-16T15:53:29.248Z,10.50
2023-03-16T15:56:03.415Z,13.70
2023-03-16T15:58:36.466Z,24.80
2023-03-16T16:01:05.090Z,11.30
2023-03-16T16:03:34.994Z,18.00
2023-03-16T16:06:03.268Z,20.80
2023-03-16T16:08:32.356Z,19.50
2023-03-16T16:11:01.592Z,37.10
2023-03-16T16:13:43.704Z,91.30
2023-03-16T16:16:16.894Z,70.80
2023-03-16T16:18:46.772Z,17.20
2023-03-16T16:21:17.035Z,28.50
2023-03-16T16:23:45.875Z,43.30
2023-03-16T16:29:32.046Z,10.90
2023-03-16T16:32:00.953Z,11.00
2023-03-16T16:34:31.556Z,10.80
2023-03-16T16:36:59.791Z,12.00
2023-03-16T16:39:28.504Z,11.50
2023-03-16T16:41:58.152Z,10.80
2023-03-16T16:44:27.710Z,11.30
2023-03-16T16:46:59.845Z,11.20
2023-03-16T16:49:30.749Z,11.80
2023-03-16T16:51:59.342Z,10.40
2023-03-16T16:54:28.728Z,11.20
2023-03-16T16:56:57.419Z,10.30
2023-03-16T16:59:32.561Z,11.60
2023-03-16T17:02:01.514Z,11.40
2023-03-16T17:04:32.145Z,11.80
2023-03-16T17:07:04.273Z,11.70
2023-03-16T17:09:35.094Z,12.10
2023-03-16T17:12:03.394Z,11.20
2023-03-16T17:14:32.380Z,10.90
2023-03-16T17:17:05.375Z,10.40
2023-03-16T17:19:34.002Z,11.10
2023-03-16T17:22:03.011Z,11.40
2023-03-16T17:24:35.026Z,12.10
2023-03-16T17:27:04.625Z,11.50
2023-03-16T17:29:33.536Z,12.20
2023-03-16T17:32:04.257Z,13.20
2023-03-16T17:34:33.463Z,12.70
2023-03-16T17:37:08.534Z,13.30
2023-03-16T17:39:39.673Z,11.90
2023-03-16T17:42:12.261Z,13.80
2023-03-16T17:44:41.648Z,12.00
2023-03-16T17:47:13.969Z,22.90
2023-03-16T17:49:42.412Z,12.30
2023-03-16T17:52:18.978Z,11.70
2023-03-16T17:54:47.673Z,12.00
2023-03-16T17:57:24.846Z,13.20
2023-03-16T17:59:53.666Z,12.40
2023-03-16T18:02:40.480Z,11.60
2023-03-16T18:05:38.466Z,11.70
2023-03-16T18:08:14.208Z,12.20
2023-03-16T18:10:45.001Z,11.60
2023-03-16T18:13:24.511Z,12.10
2023-03-16T18:15:55.976Z,11.60
2023-03-16T18:18:29.154Z,12.20
2023-03-16T18:21:01.974Z,11.60
2023-03-16T18:23:34.008Z,12.30
2023-03-16T18:26:06.948Z,11.30
2023-03-16T18:28:35.105Z,11.80
2023-03-16T18:31:05.256Z,12.30
2023-03-16T18:33:36.642Z,12.00
2023-03-16T18:36:05.861Z,11.40
2023-03-16T18:38:35.481Z,11.50
2023-03-16T18:41:16.733Z,10.70
2023-03-16T18:43:44.955Z,11.10
2023-03-16T18:46:24.023Z,11.30
2023-03-16T18:49:13.021Z,12.10
2023-03-16T18:51:45.819Z,12.10
2023-03-16T18:54:26.250Z,13.10
2023-03-16T18:56:54.458Z,13.20
2023-03-16T18:59:22.770Z,13.60
2023-03-16T19:01:51.661Z,12.70
2023-03-16T19:04:20.814Z,13.20
2023-03-16T19:06:49.724Z,12.80
2023-03-16T19:09:19.132Z,12.70
2023-03-16T19:11:47.990Z,13.50
2023-03-16T19:14:17.641Z,12.70
2023-03-16T19:16:48.110Z,12.40
2023-03-16T19:19:24.099Z,11.60
2023-03-16T19:21:54.099Z,10.80
2023-03-16T19:24:28.304Z,11.20
2023-03-16T19:27:00.016Z,12.30
2023-03-16T19:29:35.113Z,11.70
2023-03-16T19:32:04.075Z,12.00
2023-03-16T19:34:32.504Z,11.90
2023-03-16T19:37:00.938Z,12.00
2023-03-16T19:39:29.349Z,11.40
2023-03-16T19:41:58.713Z,12.00
2023-03-16T19:44:28.390Z,12.10
2023-03-16T19:46:56.801Z,12.10
2023-03-16T19:49:26.193Z,11.30
2023-03-16T19:51:55.246Z,13.50
2023-03-16T19:54:24.539Z,11.80
2023-03-16T19:56:52.977Z,11.80
2023-03-16T19:59:23.149Z,12.60
2023-03-16T20:01:52.752Z,13.70
2023-03-16T20:04:21.896Z,13.00
2023-03-16T20:06:51.003Z,13.00
2023-03-16T20:09:19.408Z,13.40
2023-03-16T20:11:47.899Z,12.40
2023-03-16T20:14:29.227Z,13.20
2023-03-16T20:16:58.631Z,13.40
2023-03-16T20:19:31.693Z,13.40
2023-03-16T20:21:59.958Z,13.50
2023-03-16T20:24:29.637Z,13.80
2023-03-16T20:27:02.324Z,13.00
2023-03-16T20:29:32.219Z,13.70
2023-03-16T20:32:00.883Z,13.10
2023-03-16T20:34:31.635Z,13.40
2023-03-16T20:36:59.989Z,13.60
2023-03-16T20:39:28.710Z,14.00
2023-03-16T20:41:57.005Z,14.60
2023-03-16T20:44:26.998Z,13.20
2023-03-16T20:46:55.869Z,13.70
2023-03-16T20:49:25.500Z,12.80
2023-03-16T20:51:57.667Z,10.30
2023-03-16T20:54:26.288Z,14.50
2023-03-16T20:56:55.162Z,14.10
2023-03-16T20:59:25.012Z,14.90
2023-03-16T21:01:55.951Z,13.20
2023-03-16T21:04:26.212Z,15.00
2023-03-16T21:06:56.496Z,14.10
2023-03-16T21:09:24.714Z,13.90
2023-03-16T21:11:53.675Z,14.80
2023-03-16T21:14:22.164Z,14.30
2023-03-16T21:16:50.729Z,14.20
2023-03-16T21:19:21.863Z,14.70
2023-03-16T21:21:51.381Z,14.30
2023-03-16T21:24:21.808Z,13.20
2023-03-16T21:26:52.441Z,13.30
2023-03-16T21:29:23.932Z,14.20
2023-03-16T21:31:52.845Z,13.40
2023-03-16T21:34:25.647Z,14.50
2023-03-16T21:36:56.046Z,13.00
2023-03-16T21:39:25.558Z,13.80
2023-03-16T21:41:53.857Z,14.00
2023-03-16T21:44:22.950Z,13.50
2023-03-16T21:46:51.597Z,14.70
2023-03-16T21:49:19.897Z,13.90
2023-03-16T21:51:49.474Z,15.00
2023-03-16T21:54:18.107Z,15.30
2023-03-16T21:56:47.919Z,14.00
2023-03-16T21:59:16.475Z,14.30
2023-03-16T22:02:00.803Z,13.70
2023-03-16T22:04:32.867Z,14.80
2023-03-16T22:07:01.147Z,14.00
2023-03-16T22:09:33.033Z,13.60
2023-03-16T22:12:01.750Z,14.00
2023-03-16T22:14:32.246Z,14.20
2023-03-16T22:17:01.972Z,13.40
2023-03-16T22:19:30.319Z,13.80
2023-03-16T22:22:02.359Z,13.40
2023-03-16T22:24:35.852Z,13.60
2023-03-16T22:27:04.535Z,12.90
2023-03-16T22:29:34.176Z,13.80
2023-03-16T22:32:04.618Z,13.30
2023-03-16T22:34:52.489Z,13.10
2023-03-16T22:37:21.614Z,13.20
2023-03-16T22:39:50.004Z,12.70
2023-03-16T22:42:30.550Z,12.40
2023-03-16T22:44:58.780Z,12.60
2023-03-16T22:47:29.208Z,12.10
2023-03-16T22:49:57.532Z,12.00
2023-03-16T22:52:28.132Z,12.20
2023-03-16T22:54:56.590Z,11.40
2023-03-16T22:57:24.867Z,11.70
2023-03-16T22:59:53.208Z,12.00
2023-03-16T23:02:24.623Z,11.60
2023-03-16T23:04:52.793Z,11.10
2023-03-16T23:07:21.365Z,11.10
2023-03-16T23:09:49.652Z,11.00
2023-03-16T23:12:19.611Z,11.80
2023-03-16T23:14:49.850Z,10.80
2023-03-16T23:17:20.141Z,11.70
2023-03-16T23:19:54.651Z,10.40
2023-03-16T23:22:23.626Z,11.40
2023-03-16T23:24:51.724Z,11.40
2023-03-16T23:27:21.748Z,11.50
2023-03-16T23:29:50.480Z,11.10
2023-03-16T23:32:18.733Z,12.00
2023-03-16T23:34:47.136Z,11.10
2023-03-16T23:37:15.921Z,11.70
2023-03-16T23:39:44.497Z,12.50
2023-03-16T23:42:13.325Z,12.40
2023-03-16T23:44:42.780Z,12.10
2023-03-16T23:47:11.145Z,12.30
2023-03-16T23:49:40.207Z,12.30
2023-03-16T23:52:12.447Z,13.40
2023-03-16T23:54:40.769Z,13.70
2023-03-16T23:57:09.661Z,13.00
2023-03-16T23:59:37.788Z,12.60
